createdAt,value
2019-01-10T00:00:40.199Z,3.47
2019-01-10T00:01:40.325Z,3.39
2019-01-10T00:02:40.233Z,3.33
2019-01-10T00:03:40.331Z,3.48
2019-01-10T00:04:54.914Z,3.43
2019-01-10T00:05:40.264Z,3.5
2019-01-10T00:06:54.946Z,3.48
2019-01-10T00:07:40.292Z,3.39
2019-01-10T00:08:40.309Z,3.32
2019-01-10T00:09:40.319Z,3.35
2019-01-10T00:10:40.333Z,3.31
2019-01-10T00:11:40.347Z,3.35
2019-01-10T00:12:44.517Z,3.36
2019-01-10T00:13:40.130Z,3.26
2019-01-10T00:15:40.396Z,3.33
2019-01-10T00:16:40.510Z,3.26
2019-01-10T00:17:40.433Z,3.2
2019-01-10T00:18:55.100Z,3.31
2019-01-10T00:19:55.113Z,3.24
2019-01-10T00:20:40.465Z,3.28
2019-01-10T00:21:40.475Z,3.18
2019-01-10T00:22:55.155Z,3.21
2019-01-10T00:24:40.516Z,3.15
2019-01-10T00:25:40.544Z,3.18
2019-01-10T00:26:40.541Z,3.2
2019-01-10T00:27:40.569Z,3.15
2019-01-10T00:28:40.568Z,3.2
2019-01-10T00:29:40.586Z,3.15
2019-01-10T00:30:40.592Z,3.15
2019-01-10T00:31:40.413Z,3.17
2019-01-10T00:32:40.620Z,3.15
2019-01-10T00:33:40.635Z,3.15
2019-01-10T00:34:40.647Z,3.21
2019-01-10T00:35:40.723Z,3.26
2019-01-10T00:36:40.672Z,3.18
2019-01-10T00:37:40.690Z,3.24
2019-01-10T00:38:55.359Z,3.11
2019-01-10T00:39:42.013Z,3.14
2019-01-10T00:40:40.725Z,3.17
2019-01-10T00:41:40.736Z,3.1
2019-01-10T00:42:49.006Z,3.11
2019-01-10T00:43:40.765Z,3.1
2019-01-10T00:44:40.778Z,3.2
2019-01-10T00:45:40.789Z,3.13
2019-01-10T00:46:40.807Z,3.18
2019-01-10T00:47:40.814Z,3.14
2019-01-10T00:48:40.836Z,3.13
2019-01-10T00:49:40.840Z,3.06
2019-01-10T00:50:55.517Z,3.2
2019-01-10T00:51:40.874Z,3.21
2019-01-10T00:52:40.887Z,3.2
2019-01-10T00:53:55.557Z,3.14
2019-01-10T00:54:40.905Z,3.21
2019-01-10T00:55:40.918Z,3.03
2019-01-10T00:56:40.932Z,3.13
2019-01-10T00:57:40.946Z,3.15
2019-01-10T00:58:40.958Z,3.2
2019-01-10T00:59:40.973Z,3.06
2019-01-10T01:00:40.985Z,3.14
2019-01-10T01:01:40.997Z,3.03
2019-01-10T01:02:55.678Z,3.05
2019-01-10T01:03:41.025Z,3
2019-01-10T01:04:41.039Z,2.99
2019-01-10T01:05:41.151Z,3.1
2019-01-10T01:06:55.725Z,3.17
2019-01-10T01:07:41.076Z,3.06
2019-01-10T01:08:41.098Z,3
2019-01-10T01:09:41.102Z,3.06
2019-01-10T01:10:41.115Z,2.97
2019-01-10T01:12:41.143Z,3.03
2019-01-10T01:13:41.156Z,3.03
2019-01-10T01:14:41.184Z,3
2019-01-10T01:15:41.177Z,3.08
2019-01-10T01:16:41.191Z,2.96
2019-01-10T01:17:41.209Z,3
2019-01-10T01:18:41.219Z,3.11
2019-01-10T01:20:41.325Z,3.15
2019-01-10T01:21:55.920Z,3.03
2019-01-10T01:22:41.267Z,3.08
2019-01-10T01:23:41.383Z,2.99
2019-01-10T01:24:41.295Z,3.02
2019-01-10T01:25:55.971Z,3
2019-01-10T01:26:41.322Z,3.06
2019-01-10T01:27:41.435Z,3.1
2019-01-10T01:28:41.347Z,2.96
2019-01-10T01:31:41.385Z,2.95
2019-01-10T01:32:41.400Z,2.97
2019-01-10T01:33:41.412Z,3.03
2019-01-10T01:34:41.422Z,3.11
2019-01-10T01:35:41.436Z,3.1
2019-01-10T01:36:41.451Z,3.06
2019-01-10T01:37:56.176Z,2.99
2019-01-10T01:38:56.137Z,3.14
2019-01-10T01:39:56.151Z,3.15
2019-01-10T01:40:41.502Z,3.14
2019-01-10T01:41:56.179Z,3.13
2019-01-10T01:42:41.529Z,3.14
2019-01-10T01:43:41.539Z,3.17
2019-01-10T01:44:41.556Z,3.14
2019-01-10T01:45:41.684Z,3.14
2019-01-10T01:46:41.584Z,3.13
2019-01-10T01:48:41.603Z,3.15
2019-01-10T01:49:41.718Z,3.05
2019-01-10T01:50:56.300Z,3.05
2019-01-10T01:52:41.660Z,3
2019-01-10T01:53:41.677Z,3
2019-01-10T01:54:41.682Z,3.03
2019-01-10T01:55:41.696Z,3.05
2019-01-10T01:56:41.709Z,3.15
2019-01-10T01:57:56.385Z,3.1
2019-01-10T01:58:41.748Z,3.14
2019-01-10T01:59:41.752Z,3.06
2019-01-10T02:00:41.760Z,3.14
2019-01-10T02:01:41.773Z,3.14
2019-01-10T02:02:41.788Z,3.14
2019-01-10T02:03:41.801Z,3.11
2019-01-10T02:04:41.812Z,3.13
2019-01-10T02:05:41.822Z,3.17
2019-01-10T02:06:41.839Z,3.06
2019-01-10T02:07:41.855Z,3.15
2019-01-10T02:08:41.863Z,3.11
2019-01-10T02:09:41.882Z,3.06
2019-01-10T02:10:56.553Z,3.17
2019-01-10T02:11:41.944Z,3.15
2019-01-10T02:12:41.915Z,3.24
2019-01-10T02:13:56.592Z,3.15
2019-01-10T02:14:41.952Z,3.11
2019-01-10T02:15:41.956Z,3.05
2019-01-10T02:16:41.977Z,3.03
2019-01-10T02:17:50.971Z,3.06
2019-01-10T02:18:42.000Z,3.06
2019-01-10T02:19:42.005Z,3.05
2019-01-10T02:20:42.026Z,3.13
2019-01-10T02:21:42.133Z,3
2019-01-10T02:22:43.453Z,3.06
2019-01-10T02:23:42.061Z,3
2019-01-10T02:25:56.748Z,3.18
2019-01-10T02:26:56.761Z,3.03
2019-01-10T02:27:42.113Z,3.15
2019-01-10T02:28:56.798Z,3
2019-01-10T02:29:42.141Z,3.02
2019-01-10T02:30:47.022Z,3
2019-01-10T02:31:42.168Z,2.95
2019-01-10T02:32:42.177Z,2.99
2019-01-10T02:33:42.195Z,2.97
2019-01-10T02:34:42.255Z,3.03
2019-01-10T02:35:42.240Z,2.92
2019-01-10T02:36:42.232Z,2.99
2019-01-10T02:37:42.243Z,3.03
2019-01-10T02:38:42.260Z,2.99
2019-01-10T02:39:42.276Z,2.89
2019-01-10T02:40:56.943Z,2.99
2019-01-10T02:41:42.298Z,2.97
2019-01-10T02:42:42.317Z,2.92
2019-01-10T02:43:42.333Z,3
2019-01-10T02:44:42.345Z,3.06
2019-01-10T02:45:42.354Z,2.96
2019-01-10T02:46:42.360Z,3
2019-01-10T02:47:42.378Z,3.11
2019-01-10T02:48:42.157Z,3.05
2019-01-10T02:49:42.401Z,2.97
2019-01-10T02:50:57.081Z,3.03
2019-01-10T02:51:42.427Z,2.99
2019-01-10T02:52:42.438Z,2.99
2019-01-10T02:54:42.463Z,3.03
2019-01-10T02:55:42.494Z,3.03
2019-01-10T02:56:42.489Z,2.97
2019-01-10T02:57:42.503Z,2.97
2019-01-10T02:58:42.626Z,3.02
2019-01-10T02:59:42.530Z,3.11
2019-01-10T03:00:57.204Z,2.95
2019-01-10T03:01:42.589Z,2.89
2019-01-10T03:02:42.567Z,2.95
2019-01-10T03:03:42.590Z,2.97
2019-01-10T03:04:42.593Z,2.95
2019-01-10T03:05:42.603Z,2.96
2019-01-10T03:07:42.641Z,3
2019-01-10T03:08:42.643Z,3.08
2019-01-10T03:09:42.660Z,2.95
2019-01-10T03:10:42.677Z,2.97
2019-01-10T03:11:42.685Z,2.99
2019-01-10T03:12:42.696Z,2.92
2019-01-10T03:13:42.715Z,2.92
2019-01-10T03:14:42.723Z,2.9
2019-01-10T03:15:42.742Z,2.97
2019-01-10T03:16:57.410Z,2.97
2019-01-10T03:17:42.763Z,2.9
2019-01-10T03:18:42.775Z,2.87
2019-01-10T03:19:42.606Z,2.84
2019-01-10T03:20:42.808Z,2.85
2019-01-10T03:22:42.828Z,3.03
2019-01-10T03:23:42.840Z,2.96
2019-01-10T03:25:42.876Z,3
2019-01-10T03:26:42.886Z,2.87
2019-01-10T03:28:42.901Z,2.9
2019-01-10T03:29:42.917Z,2.93
2019-01-10T03:32:57.640Z,2.95
2019-01-10T03:33:42.983Z,2.89
2019-01-10T03:34:43.500Z,2.93
2019-01-10T03:35:43.097Z,2.93
2019-01-10T03:36:43.007Z,2.87
2019-01-10T03:37:43.021Z,2.84
2019-01-10T03:38:43.039Z,2.89
2019-01-10T03:39:43.064Z,2.78
2019-01-10T03:40:43.063Z,2.81
2019-01-10T03:41:43.087Z,2.9
2019-01-10T03:42:43.098Z,2.75
2019-01-10T03:43:52.282Z,2.71
2019-01-10T03:44:42.866Z,2.87
2019-01-10T03:45:43.123Z,2.77
2019-01-10T03:46:43.147Z,2.81
2019-01-10T03:47:43.256Z,2.81
2019-01-10T03:48:57.821Z,2.82
2019-01-10T03:49:43.178Z,2.82
2019-01-10T03:50:43.190Z,2.87
2019-01-10T03:51:43.208Z,2.93
2019-01-10T03:52:43.215Z,2.92
2019-01-10T03:53:43.242Z,2.92
2019-01-10T03:54:43.246Z,2.89
2019-01-10T03:56:43.267Z,2.96
2019-01-10T03:57:43.285Z,2.92
2019-01-10T03:59:43.345Z,3.02
2019-01-10T04:00:57.978Z,2.93
2019-01-10T04:01:43.328Z,2.97
2019-01-10T04:02:43.353Z,2.85
2019-01-10T04:03:58.015Z,2.79
2019-01-10T04:04:43.372Z,2.87
2019-01-10T04:05:43.478Z,2.89
2019-01-10T04:06:44.585Z,2.92
2019-01-10T04:07:43.405Z,2.92
2019-01-10T04:08:43.421Z,2.96
2019-01-10T04:09:43.429Z,2.9
2019-01-10T04:10:43.443Z,2.82
2019-01-10T04:11:43.460Z,2.89
2019-01-10T04:12:43.484Z,2.79
2019-01-10T04:13:58.147Z,2.79
2019-01-10T04:14:43.504Z,2.89
2019-01-10T04:15:43.514Z,2.82
2019-01-10T04:16:58.182Z,2.82
2019-01-10T04:17:43.540Z,2.82
2019-01-10T04:18:43.546Z,2.87
2019-01-10T04:19:43.579Z,2.9
2019-01-10T04:20:43.576Z,2.85
2019-01-10T04:21:43.591Z,2.87
2019-01-10T04:22:43.604Z,2.77
2019-01-10T04:23:43.626Z,2.87
2019-01-10T04:24:43.624Z,2.84
2019-01-10T04:25:45.443Z,2.82
2019-01-10T04:27:43.680Z,2.9
2019-01-10T04:28:43.673Z,2.79
2019-01-10T04:29:58.352Z,2.92
2019-01-10T04:30:46.243Z,2.79
2019-01-10T04:31:43.464Z,2.9
2019-01-10T04:32:43.731Z,2.87
2019-01-10T04:33:43.752Z,2.75
2019-01-10T04:34:43.753Z,2.81
2019-01-10T04:35:58.435Z,2.75
2019-01-10T04:36:43.778Z,2.75
2019-01-10T04:37:43.800Z,2.79
2019-01-10T04:38:43.804Z,2.72
2019-01-10T04:39:43.825Z,2.74
2019-01-10T04:40:43.837Z,2.81
2019-01-10T04:41:43.853Z,2.69
2019-01-10T04:42:43.883Z,2.74
2019-01-10T04:43:43.873Z,2.72
2019-01-10T04:44:43.890Z,2.72
2019-01-10T04:46:43.913Z,2.71
2019-01-10T04:47:43.926Z,2.71
2019-01-10T04:48:43.998Z,2.66
2019-01-10T04:49:58.607Z,2.69
2019-01-10T04:50:43.958Z,2.67
2019-01-10T04:51:58.633Z,2.6
2019-01-10T04:52:43.985Z,2.49
2019-01-10T04:53:44.003Z,2.69
2019-01-10T04:54:58.680Z,2.61
2019-01-10T04:56:44.082Z,2.59
2019-01-10T04:57:44.052Z,2.57
2019-01-10T04:58:44.064Z,2.59
2019-01-10T04:59:44.075Z,2.63
2019-01-10T05:00:44.093Z,2.54
2019-01-10T05:01:44.101Z,2.49
2019-01-10T05:03:44.127Z,2.49
2019-01-10T05:04:44.143Z,2.46
2019-01-10T05:05:44.152Z,2.45
2019-01-10T05:06:44.166Z,2.59
2019-01-10T05:07:58.836Z,2.56
2019-01-10T05:08:44.191Z,2.48
2019-01-10T05:09:44.201Z,2.54
2019-01-10T05:10:44.215Z,2.49
2019-01-10T05:11:44.326Z,2.6
2019-01-10T05:12:46.663Z,2.66
2019-01-10T05:13:44.314Z,2.66
2019-01-10T05:16:44.291Z,2.61
2019-01-10T05:17:44.322Z,2.72
2019-01-10T05:18:44.321Z,2.63
2019-01-10T05:19:58.990Z,2.72
2019-01-10T05:20:44.341Z,2.61
2019-01-10T05:21:44.357Z,2.61
2019-01-10T05:22:44.363Z,2.64
2019-01-10T05:23:59.043Z,2.6
2019-01-10T05:24:44.394Z,2.69
2019-01-10T05:25:44.405Z,2.81
2019-01-10T05:26:44.415Z,2.72
2019-01-10T05:27:44.428Z,2.71
2019-01-10T05:28:59.111Z,2.63
2019-01-10T05:29:44.454Z,2.67
2019-01-10T05:30:44.467Z,2.67
2019-01-10T05:31:44.480Z,2.67
2019-01-10T05:32:44.502Z,2.63
2019-01-10T05:33:44.517Z,2.71
2019-01-10T05:34:59.187Z,2.66
2019-01-10T05:35:44.531Z,2.78
2019-01-10T05:36:59.207Z,2.72
2019-01-10T05:37:44.573Z,2.72
2019-01-10T05:38:59.234Z,2.64
2019-01-10T05:39:52.460Z,2.67
2019-01-10T05:40:44.796Z,2.61
2019-01-10T05:41:44.615Z,2.61
2019-01-10T05:42:44.637Z,2.6
2019-01-10T05:44:44.648Z,2.61
2019-01-10T05:45:44.659Z,2.57
2019-01-10T05:46:53.448Z,2.54
2019-01-10T05:47:45.648Z,2.52
2019-01-10T05:48:59.363Z,2.64
2019-01-10T05:49:44.723Z,2.64
2019-01-10T05:50:46.256Z,2.59
2019-01-10T05:51:44.739Z,2.53
2019-01-10T05:52:44.754Z,2.49
2019-01-10T05:53:44.772Z,2.61
2019-01-10T05:54:44.777Z,2.67
2019-01-10T05:55:44.890Z,2.75
2019-01-10T05:56:44.801Z,2.59
2019-01-10T05:57:44.814Z,2.77
2019-01-10T05:58:46.955Z,2.69
2019-01-10T05:59:44.840Z,2.71
2019-01-10T06:00:44.859Z,2.71
2019-01-10T06:01:44.868Z,2.72
2019-01-10T06:03:52.913Z,2.64
2019-01-10T06:05:44.916Z,2.64
2019-01-10T06:06:44.928Z,2.67
2019-01-10T06:07:59.603Z,2.56
2019-01-10T06:08:44.953Z,2.63
2019-01-10T06:09:45.003Z,2.66
2019-01-10T06:10:59.642Z,2.57
2019-01-10T06:11:44.992Z,2.57
2019-01-10T06:12:45.008Z,2.52
2019-01-10T06:13:45.029Z,2.53
2019-01-10T06:14:45.032Z,2.49
2019-01-10T06:15:45.043Z,2.45
2019-01-10T06:17:45.071Z,2.41
2019-01-10T06:18:45.082Z,2.35
2019-01-10T06:19:45.096Z,2.36
2019-01-10T06:22:45.135Z,2.39
2019-01-10T06:23:59.807Z,2.43
2019-01-10T06:24:45.157Z,2.41
2019-01-10T06:25:45.203Z,2.35
2019-01-10T06:26:59.848Z,2.42
2019-01-10T06:27:45.201Z,2.38
2019-01-10T06:28:47.729Z,2.42
2019-01-10T06:29:45.310Z,2.27
2019-01-10T06:30:45.233Z,2.31
2019-01-10T06:31:45.252Z,2.3
2019-01-10T06:32:45.260Z,2.35
2019-01-10T06:33:45.276Z,2.41
2019-01-10T06:34:45.289Z,2.35
2019-01-10T06:35:45.301Z,2.28
2019-01-10T06:36:45.320Z,2.41
2019-01-10T06:37:45.327Z,2.48
2019-01-10T06:38:59.998Z,2.38
2019-01-10T06:40:45.362Z,2.38
2019-01-10T06:41:45.373Z,2.3
2019-01-10T06:43:00.050Z,2.49
2019-01-10T06:43:45.400Z,2.34
2019-01-10T06:45:45.429Z,2.42
2019-01-10T06:46:45.436Z,2.36
2019-01-10T06:47:45.455Z,2.53
2019-01-10T06:48:45.462Z,2.36
2019-01-10T06:49:45.475Z,2.34
2019-01-10T06:50:45.487Z,2.31
2019-01-10T06:51:45.502Z,2.28
2019-01-10T06:53:45.281Z,2.24
2019-01-10T06:54:56.137Z,2.3
2019-01-10T06:55:47.382Z,2.34
2019-01-10T06:56:46.987Z,2.31
2019-01-10T06:57:45.574Z,2.36
2019-01-10T06:59:00.251Z,2.36
2019-01-10T06:59:45.611Z,2.35
2019-01-10T07:00:45.614Z,2.31
2019-01-10T07:01:45.627Z,2.39
2019-01-10T07:02:45.642Z,2.39
2019-01-10T07:03:45.653Z,2.42
2019-01-10T07:05:45.682Z,2.41
2019-01-10T07:06:45.694Z,2.41
2019-01-10T07:07:45.706Z,2.31
2019-01-10T07:08:45.715Z,2.39
2019-01-10T07:09:45.726Z,2.38
2019-01-10T07:10:45.744Z,2.43
2019-01-10T07:11:45.757Z,2.34
2019-01-10T07:12:45.769Z,2.27
2019-01-10T07:14:00.444Z,2.39
2019-01-10T07:14:53.476Z,2.45
2019-01-10T07:15:45.807Z,2.28
2019-01-10T07:16:53.408Z,2.35
2019-01-10T07:17:45.831Z,2.28
2019-01-10T07:18:45.844Z,2.34
2019-01-10T07:19:45.856Z,2.42
2019-01-10T07:20:45.872Z,2.34
2019-01-10T07:22:45.893Z,2.28
2019-01-10T07:23:45.906Z,2.34
2019-01-10T07:24:46.030Z,2.39
2019-01-10T07:26:00.594Z,2.34
2019-01-10T07:27:00.606Z,2.38
2019-01-10T07:27:45.960Z,2.46
2019-01-10T07:28:45.973Z,2.41
2019-01-10T07:29:45.987Z,2.48
2019-01-10T07:30:45.996Z,2.35
2019-01-10T07:31:46.007Z,2.35
2019-01-10T07:32:46.033Z,2.34
2019-01-10T07:33:46.033Z,2.28
2019-01-10T07:34:46.047Z,2.09
2019-01-10T07:35:46.164Z,2.16
2019-01-10T07:36:46.174Z,2.23
2019-01-10T07:37:45.848Z,2.18
2019-01-10T07:38:46.102Z,2.2
2019-01-10T07:39:46.121Z,2.09
2019-01-10T07:40:46.129Z,2.09
2019-01-10T07:41:46.283Z,2.07
2019-01-10T07:42:46.147Z,2.07
2019-01-10T07:44:45.924Z,2.18
2019-01-10T07:46:00.845Z,2.23
2019-01-10T07:46:46.196Z,2.17
2019-01-10T07:47:46.209Z,2.31
2019-01-10T07:48:46.222Z,2.23
2019-01-10T07:49:46.369Z,2.21
2019-01-10T07:51:00.928Z,2.2
2019-01-10T07:51:46.262Z,2.21
2019-01-10T07:52:46.282Z,2.1
2019-01-10T07:53:46.283Z,2.07
2019-01-10T07:54:47.383Z,2.1
2019-01-10T07:55:46.315Z,2.17
2019-01-10T07:56:46.378Z,2.28
2019-01-10T07:57:46.339Z,2.38
2019-01-10T07:58:46.346Z,2.27
2019-01-10T08:00:01.021Z,2.31
2019-01-10T08:00:46.370Z,2.17
2019-01-10T08:02:01.150Z,2.23
2019-01-10T08:02:46.397Z,2.24
2019-01-10T08:03:46.413Z,2.18
2019-01-10T08:04:46.424Z,2.2
2019-01-10T08:05:46.435Z,2.31
2019-01-10T08:06:46.452Z,2.3
2019-01-10T08:07:46.463Z,2.21
2019-01-10T08:08:46.472Z,2.34
2019-01-10T08:09:46.483Z,2.18
2019-01-10T08:10:46.494Z,2.23
2019-01-10T08:11:46.510Z,2.2
2019-01-10T08:12:46.524Z,2.18
2019-01-10T08:14:01.197Z,2.25
2019-01-10T08:14:46.558Z,2.24
2019-01-10T08:15:46.558Z,2.39
2019-01-10T08:16:46.579Z,2.36
2019-01-10T08:18:46.602Z,2.28
2019-01-10T08:19:46.613Z,2.36
2019-01-10T08:20:46.621Z,2.31
2019-01-10T08:21:48.977Z,2.38
2019-01-10T08:22:46.650Z,2.48
2019-01-10T08:24:01.328Z,2.45
2019-01-10T08:24:46.674Z,2.43
2019-01-10T08:25:46.691Z,2.39
2019-01-10T08:26:46.697Z,2.35
2019-01-10T08:28:46.722Z,2.39
2019-01-10T08:29:46.750Z,2.31
2019-01-10T08:30:46.843Z,2.28
2019-01-10T08:31:46.762Z,2.2
2019-01-10T08:32:46.783Z,2.24
2019-01-10T08:34:01.451Z,2.49
2019-01-10T08:34:46.800Z,2.39
2019-01-10T08:35:46.828Z,2.49
2019-01-10T08:36:46.828Z,2.45
2019-01-10T08:37:46.841Z,2.45
2019-01-10T08:38:46.850Z,2.48
2019-01-10T08:39:46.863Z,2.41
2019-01-10T08:40:46.874Z,2.46
2019-01-10T08:41:46.653Z,2.54
2019-01-10T08:42:46.901Z,2.49
2019-01-10T08:43:46.915Z,2.45
2019-01-10T08:44:47.031Z,2.46
2019-01-10T08:45:46.943Z,2.46
2019-01-10T08:46:46.953Z,2.31
2019-01-10T08:47:47.015Z,2.42
2019-01-10T08:49:01.651Z,2.38
2019-01-10T08:49:46.992Z,2.34
2019-01-10T08:50:47.011Z,2.45
2019-01-10T08:51:47.017Z,2.42
2019-01-10T08:52:47.032Z,2.36
2019-01-10T08:53:56.111Z,2.35
2019-01-10T08:54:47.054Z,2.49
2019-01-10T08:55:47.072Z,2.49
2019-01-10T08:56:47.094Z,2.45
2019-01-10T08:57:46.845Z,2.46
2019-01-10T08:59:01.774Z,2.54
2019-01-10T08:59:47.124Z,2.54
2019-01-10T09:00:47.136Z,2.45
2019-01-10T09:02:01.809Z,2.48
2019-01-10T09:02:47.173Z,2.6
2019-01-10T09:03:49.273Z,2.53
2019-01-10T09:04:47.191Z,2.59
2019-01-10T09:05:47.299Z,2.54
2019-01-10T09:06:47.207Z,2.46
2019-01-10T09:07:47.231Z,2.49
2019-01-10T09:08:47.233Z,2.61
2019-01-10T09:09:47.351Z,2.54
2019-01-10T09:10:47.261Z,2.56
2019-01-10T09:11:47.278Z,2.56
2019-01-10T09:12:47.284Z,2.46
2019-01-10T09:13:47.298Z,2.52
2019-01-10T09:15:47.329Z,2.49
2019-01-10T09:16:47.338Z,2.61
2019-01-10T09:17:47.357Z,2.43
2019-01-10T09:18:47.364Z,2.54
2019-01-10T09:19:47.379Z,2.46
2019-01-10T09:21:06.958Z,2.63
2019-01-10T09:21:47.456Z,2.64
2019-01-10T09:22:47.419Z,2.61
2019-01-10T09:23:47.466Z,2.59
2019-01-10T09:24:47.444Z,2.56
2019-01-10T09:25:47.465Z,2.54
2019-01-10T09:26:47.468Z,2.59
2019-01-10T09:27:47.481Z,2.56
2019-01-10T09:29:47.514Z,2.53
2019-01-10T09:30:47.531Z,2.57
2019-01-10T09:31:47.541Z,2.63
2019-01-10T09:32:47.554Z,2.72
2019-01-10T09:33:47.563Z,2.75
2019-01-10T09:34:47.579Z,2.72
2019-01-10T09:35:47.590Z,2.87
2019-01-10T09:37:03.862Z,2.95
2019-01-10T09:37:47.617Z,2.85
2019-01-10T09:38:47.630Z,2.92
2019-01-10T09:39:47.639Z,2.78
2019-01-10T09:40:47.653Z,2.77
2019-01-10T09:41:47.665Z,2.74
2019-01-10T09:42:47.683Z,2.75
2019-01-10T09:44:47.709Z,2.85
2019-01-10T09:46:03.088Z,2.78
2019-01-10T09:47:47.751Z,2.6
2019-01-10T09:48:47.757Z,2.57
2019-01-10T09:49:47.771Z,2.59
2019-01-10T09:50:47.790Z,2.57
2019-01-10T09:51:47.805Z,2.72
2019-01-10T09:53:02.473Z,2.69
2019-01-10T09:53:47.854Z,2.66
2019-01-10T09:54:47.838Z,2.46
2019-01-10T09:56:47.871Z,2.35
2019-01-10T09:57:48.006Z,2.43
2019-01-10T09:58:47.897Z,2.38
2019-01-10T09:59:50.141Z,2.46
2019-01-10T10:00:47.916Z,2.46
2019-01-10T10:01:47.930Z,2.6
2019-01-10T10:02:47.943Z,2.71
2019-01-10T10:03:47.956Z,2.79
2019-01-10T10:04:47.994Z,2.89
2019-01-10T10:05:47.981Z,3.08
2019-01-10T10:06:48.000Z,3.05
2019-01-10T10:07:48.007Z,3.02
2019-01-10T10:09:02.683Z,3
2019-01-10T10:09:48.032Z,3.15
2019-01-10T10:10:48.055Z,3
2019-01-10T10:11:48.065Z,3.06
2019-01-10T10:12:48.073Z,3.05
2019-01-10T10:13:48.089Z,3.08
2019-01-10T10:14:48.104Z,3.13
2019-01-10T10:15:57.063Z,2.89
2019-01-10T10:16:48.128Z,3.08
2019-01-10T10:17:48.163Z,2.97
2019-01-10T10:18:48.151Z,3.1
2019-01-10T10:20:48.179Z,3.36
2019-01-10T10:21:48.197Z,3.45
2019-01-10T10:22:48.211Z,3.45
2019-01-10T10:24:02.890Z,3.43
2019-01-10T10:24:48.235Z,3.4
2019-01-10T10:25:48.251Z,3.35
2019-01-10T10:26:48.290Z,3.32
2019-01-10T10:27:48.278Z,3.18
2019-01-10T10:28:48.301Z,3.23
2019-01-10T10:29:48.302Z,3.24
2019-01-10T10:30:48.314Z,3.15
2019-01-10T10:31:48.333Z,3.28
2019-01-10T10:32:48.346Z,3.32
2019-01-10T10:35:48.385Z,3.28
2019-01-10T10:36:48.401Z,3.39
2019-01-10T10:37:48.419Z,3.4
2019-01-10T10:38:48.425Z,3.43
2019-01-10T10:39:48.442Z,3.08
2019-01-10T10:40:48.454Z,3.03
2019-01-10T10:41:48.469Z,3.13
2019-01-10T10:42:48.580Z,2.99
2019-01-10T10:43:48.492Z,2.99
2019-01-10T10:44:48.510Z,2.85
2019-01-10T10:45:48.524Z,2.84
2019-01-10T10:47:48.549Z,2.81
2019-01-10T10:48:48.601Z,2.79
2019-01-10T10:49:48.576Z,2.79
2019-01-10T10:50:48.590Z,2.79
2019-01-10T10:51:48.602Z,2.85
2019-01-10T10:53:03.278Z,2.97
2019-01-10T10:53:48.634Z,2.87
2019-01-10T10:54:48.646Z,2.89
2019-01-10T10:56:03.319Z,2.95
2019-01-10T10:56:48.731Z,2.85
2019-01-10T10:57:48.689Z,3.05
2019-01-10T10:58:48.699Z,3
2019-01-10T10:59:48.709Z,2.93
2019-01-10T11:00:48.726Z,3.05
2019-01-10T11:01:48.737Z,2.93
2019-01-10T11:02:48.765Z,2.89
2019-01-10T11:03:48.767Z,2.96
2019-01-10T11:04:48.780Z,3
2019-01-10T11:05:48.792Z,2.99
2019-01-10T11:07:48.822Z,3.06
2019-01-10T11:08:49.482Z,3.14
2019-01-10T11:09:48.846Z,3.47
2019-01-10T11:12:03.389Z,3.21
2019-01-10T11:12:48.885Z,3.26
2019-01-10T11:13:48.903Z,3.2
2019-01-10T11:14:53.002Z,3.11
2019-01-10T11:15:48.931Z,3.15
2019-01-10T11:16:48.941Z,2.92
2019-01-10T11:17:48.961Z,2.84
2019-01-10T11:18:48.965Z,2.92
2019-01-10T11:19:51.124Z,2.84
2019-01-10T11:20:48.996Z,2.77
2019-01-10T11:21:49.016Z,2.74
2019-01-10T11:22:49.022Z,2.77
2019-01-10T11:23:49.046Z,2.82
2019-01-10T11:24:49.055Z,2.93
2019-01-10T11:25:49.060Z,2.89
2019-01-10T11:26:49.079Z,2.92
2019-01-10T11:28:03.750Z,2.96
2019-01-10T11:28:49.100Z,3.02
2019-01-10T11:29:49.113Z,3.06
2019-01-10T11:30:49.130Z,3.18
2019-01-10T11:31:49.145Z,3.13
2019-01-10T11:32:49.154Z,3.02
2019-01-10T11:33:49.168Z,3.08
2019-01-10T11:34:49.181Z,3.08
2019-01-10T11:35:49.197Z,3.13
2019-01-10T11:36:49.207Z,3.2
2019-01-10T11:37:49.237Z,3.03
2019-01-10T11:39:04.763Z,3
2019-01-10T11:39:49.246Z,2.95
2019-01-10T11:40:49.262Z,3.03
2019-01-10T11:41:49.275Z,3.14
2019-01-10T11:42:49.292Z,3.26
2019-01-10T11:44:03.965Z,3.2
2019-01-10T11:44:49.317Z,3.2
2019-01-10T11:45:49.328Z,3.13
2019-01-10T11:46:49.341Z,3.11
2019-01-10T11:47:49.358Z,3.14
2019-01-10T11:48:49.370Z,3.14
2019-01-10T11:49:49.379Z,3.05
2019-01-10T11:51:49.407Z,3.14
2019-01-10T11:52:49.422Z,3.15
2019-01-10T11:53:49.436Z,3.17
2019-01-10T11:54:49.980Z,3.06
2019-01-10T11:56:04.123Z,3.05
2019-01-10T11:56:49.477Z,3.1
2019-01-10T11:57:49.648Z,3.11
2019-01-10T11:59:04.164Z,3.21
2019-01-10T11:59:49.517Z,3.26
2019-01-10T12:00:49.532Z,3.18
2019-01-10T12:01:49.552Z,3.15
2019-01-10T12:02:49.561Z,3.24
2019-01-10T12:03:49.569Z,3.32
2019-01-10T12:04:49.586Z,3.31
2019-01-10T12:05:55.518Z,3.29
2019-01-10T12:06:49.608Z,3.2
2019-01-10T12:07:49.375Z,3.28
2019-01-10T12:08:49.640Z,3.23
2019-01-10T12:09:49.650Z,3.18
2019-01-10T12:10:49.670Z,3.21
2019-01-10T12:12:04.338Z,2.99
2019-01-10T12:12:49.689Z,2.89
2019-01-10T12:13:49.703Z,2.81
2019-01-10T12:14:49.717Z,2.89
2019-01-10T12:15:49.733Z,2.87
2019-01-10T12:16:49.744Z,2.99
2019-01-10T12:17:49.765Z,2.97
2019-01-10T12:18:58.924Z,2.99
2019-01-10T12:19:49.783Z,2.95
2019-01-10T12:20:49.796Z,3.08
2019-01-10T12:21:49.811Z,3.03
2019-01-10T12:22:49.831Z,3.28
2019-01-10T12:23:49.840Z,3.18
2019-01-10T12:25:49.864Z,3.17
2019-01-10T12:26:49.876Z,3.23
2019-01-10T12:27:49.888Z,3.23
2019-01-10T12:28:49.909Z,3.24
2019-01-10T12:29:49.916Z,3.23
2019-01-10T12:31:04.599Z,3.1
2019-01-10T12:31:49.945Z,3.18
2019-01-10T12:32:49.971Z,3.17
2019-01-10T12:33:49.975Z,3.18
2019-01-10T12:34:49.984Z,3.21
2019-01-10T12:35:49.996Z,3.1
2019-01-10T12:36:50.014Z,3.18
2019-01-10T12:37:50.028Z,3.1
2019-01-10T12:38:50.041Z,3.13
2019-01-10T12:39:50.053Z,3.15
2019-01-10T12:40:50.069Z,3.29
2019-01-10T12:41:50.078Z,3.28
2019-01-10T12:42:50.097Z,3.33
2019-01-10T12:43:50.111Z,3.43
2019-01-10T12:45:04.780Z,3.6
2019-01-10T12:45:50.146Z,3.65
2019-01-10T12:47:04.807Z,3.52
2019-01-10T12:47:50.161Z,3.48
2019-01-10T12:48:50.170Z,3.48
2019-01-10T12:49:50.188Z,3.47
2019-01-10T12:50:50.198Z,3.42
2019-01-10T12:51:50.221Z,3.28
2019-01-10T12:52:50.224Z,3.2
2019-01-10T12:53:50.239Z,3.13
2019-01-10T12:54:50.252Z,3.21
2019-01-10T12:57:04.948Z,3.5
2019-01-10T12:57:50.292Z,3.43
2019-01-10T12:58:50.316Z,3.47
2019-01-10T12:59:50.318Z,3.42
2019-01-10T13:00:50.335Z,3.39
2019-01-10T13:01:50.346Z,3.31
2019-01-10T13:03:04.790Z,3.35
2019-01-10T13:03:50.379Z,3.47
2019-01-10T13:05:50.399Z,3.51
2019-01-10T13:06:50.415Z,3.54
2019-01-10T13:07:50.428Z,3.52
2019-01-10T13:08:50.455Z,3.47
2019-01-10T13:09:50.455Z,3.45
2019-01-10T13:11:05.134Z,3.52
2019-01-10T13:11:50.482Z,3.4
2019-01-10T13:12:50.493Z,3.47
2019-01-10T13:13:50.518Z,3.45
2019-01-10T13:14:50.525Z,3.47
2019-01-10T13:15:50.538Z,3.15
2019-01-10T13:16:52.028Z,3.21
2019-01-10T13:17:50.565Z,3.1
2019-01-10T13:19:50.594Z,3.06
2019-01-10T13:20:50.604Z,3.21
2019-01-10T13:21:50.615Z,3.18
2019-01-10T13:22:50.632Z,3.15
2019-01-10T13:23:50.644Z,3.17
2019-01-10T13:24:50.655Z,3.18
2019-01-10T13:25:59.283Z,3.31
2019-01-10T13:26:50.687Z,3.23
2019-01-10T13:27:50.695Z,3.29
2019-01-10T13:28:50.707Z,3.33
2019-01-10T13:30:50.737Z,3.33
2019-01-10T13:31:50.759Z,3.39
2019-01-10T13:32:50.760Z,3.4
2019-01-10T13:34:05.440Z,3.47
2019-01-10T13:34:50.793Z,3.52
2019-01-10T13:35:50.850Z,3.5
2019-01-10T13:36:50.818Z,3.47
2019-01-10T13:37:50.827Z,3.42
2019-01-10T13:38:50.850Z,3.42
2019-01-10T13:39:50.853Z,3.47
2019-01-10T13:41:05.539Z,3.47
2019-01-10T13:41:50.883Z,3.39
2019-01-10T13:42:50.896Z,3.28
2019-01-10T13:43:51.011Z,3.31
2019-01-10T13:44:50.928Z,3.21
2019-01-10T13:45:51.289Z,3.14
2019-01-10T13:46:58.074Z,3.15
2019-01-10T13:47:50.969Z,3.14
2019-01-10T13:48:56.230Z,3.14
2019-01-10T13:49:50.757Z,3.23
2019-01-10T13:50:51.002Z,3.2
2019-01-10T13:51:51.017Z,3.33
2019-01-10T13:52:51.028Z,3.23
2019-01-10T13:53:51.042Z,3.36
2019-01-10T13:54:51.053Z,3.35
2019-01-10T13:55:51.067Z,3.29
2019-01-10T13:56:51.085Z,3.29
2019-01-10T13:57:51.098Z,3.32
2019-01-10T13:58:51.107Z,3.18
2019-01-10T13:59:51.123Z,3.17
2019-01-10T14:00:51.150Z,3.2
2019-01-10T14:01:51.147Z,3.03
2019-01-10T14:02:51.166Z,3.14
2019-01-10T14:03:51.175Z,3.1
2019-01-10T14:04:51.188Z,3.17
2019-01-10T14:06:05.863Z,3.2
2019-01-10T14:06:51.218Z,3.06
2019-01-10T14:07:51.238Z,3.17
2019-01-10T14:08:51.240Z,3.18
2019-01-10T14:09:51.257Z,3.11
2019-01-10T14:10:51.266Z,3.15
2019-01-10T14:11:51.280Z,3.15
2019-01-10T14:12:51.303Z,3.14
2019-01-10T14:13:51.307Z,3.08
2019-01-10T14:15:51.335Z,3.1
2019-01-10T14:16:51.346Z,3.14
2019-01-10T14:17:51.370Z,3.13
2019-01-10T14:19:06.035Z,2.97